sensor_id;sensor_type;location;lat;lon;timestamp;P1;durP1;ratioP1;P2;durP2;ratioP2
48871;SDS011;36154;51.674;7.824;2023-08-07T00:01:48;0.10;;;0.10;;
48871;SDS011;36154;51.674;7.824;2023-08-07T00:04:13;0.20;;;0.20;;
48871;SDS011;36154;51.674;7.824;2023-08-07T00:06:39;0.10;;;0.10;;
48871;SDS011;36154;51.674;7.824;2023-08-07T00:09:04;0.15;;;0.10;;
48871;SDS011;36154;51.674;7.824;2023-08-07T00:11:29;0.10;;;0.10;;
48871;SDS011;36154;51.674;7.824;2023-08-07T00:13:55;0.10;;;0.10;;
48871;SDS011;36154;51.674;7.824;2023-08-07T00:16:20;0.10;;;0.10;;
48871;SDS011;36154;51.674;7.824;2023-08-07T00:18:45;0.35;;;0.28;;
48871;SDS011;36154;51.674;7.824;2023-08-07T00:21:11;0.10;;;0.10;;
48871;SDS011;36154;51.674;7.824;2023-08-07T00:23:37;0.10;;;0.10;;
48871;SDS011;36154;51.674;7.824;2023-08-07T00:26:02;0.28;;;0.13;;
48871;SDS011;36154;51.674;7.824;2023-08-07T00:28:27;0.20;;;0.20;;
48871;SDS011;36154;51.674;7.824;2023-08-07T00:30:54;0.30;;;0.10;;
48871;SDS011;36154;51.674;7.824;2023-08-07T00:33:19;0.10;;;0.10;;
48871;SDS011;36154;51.674;7.824;2023-08-07T00:35:45;0.10;;;0.10;;
48871;SDS011;36154;51.674;7.824;2023-08-07T00:38:10;0.70;;;0.10;;
48871;SDS011;36154;51.674;7.824;2023-08-07T00:40:36;0.10;;;0.10;;
48871;SDS011;36154;51.674;7.824;2023-08-07T00:43:02;0.15;;;0.10;;
48871;SDS011;36154;51.674;7.824;2023-08-07T00:45:28;0.10;;;0.10;;
48871;SDS011;36154;51.674;7.824;2023-08-07T00:47:53;0.10;;;0.10;;
48871;SDS011;36154;51.674;7.824;2023-08-07T00:50:18;0.15;;;0.08;;
48871;SDS011;36154;51.674;7.824;2023-08-07T00:52:44;0.15;;;0.13;;
48871;SDS011;36154;51.674;7.824;2023-08-07T00:55:09;0.30;;;0.10;;
48871;SDS011;36154;51.674;7.824;2023-08-07T00:57:35;0.10;;;0.10;;
48871;SDS011;36154;51.674;7.824;2023-08-07T01:00:01;0.10;;;0.10;;
48871;SDS011;36154;51.674;7.824;2023-08-07T01:02:27;0.10;;;0.10;;
48871;SDS011;36154;51.674;7.824;2023-08-07T01:04:53;0.10;;;0.10;;
48871;SDS011;36154;51.674;7.824;2023-08-07T01:07:18;0.10;;;0.10;;
48871;SDS011;36154;51.674;7.824;2023-08-07T01:09:46;0.10;;;0.10;;
48871;SDS011;36154;51.674;7.824;2023-08-07T01:12:15;0.08;;;0.08;;
48871;SDS011;36154;51.674;7.824;2023-08-07T01:17:15;0.47;;;0.20;;
48871;SDS011;36154;51.674;7.824;2023-08-07T01:19:41;0.00;;;0.00;;
48871;SDS011;36154;51.674;7.824;2023-08-07T01:24:37;0.10;;;0.10;;
48871;SDS011;36154;51.674;7.824;2023-08-07T01:29:46;0.00;;;0.00;;
48871;SDS011;36154;51.674;7.824;2023-08-07T01:32:14;0.68;;;0.15;;
48871;SDS011;36154;51.674;7.824;2023-08-07T01:34:45;0.10;;;0.10;;
48871;SDS011;36154;51.674;7.824;2023-08-07T01:37:13;0.10;;;0.05;;
48871;SDS011;36154;51.674;7.824;2023-08-07T01:39:38;0.10;;;0.10;;
48871;SDS011;36154;51.674;7.824;2023-08-07T01:42:05;0.10;;;0.10;;
48871;SDS011;36154;51.674;7.824;2023-08-07T01:44:31;0.10;;;0.10;;
48871;SDS011;36154;51.674;7.824;2023-08-07T01:46:57;0.00;;;0.00;;
48871;SDS011;36154;51.674;7.824;2023-08-07T01:49:22;0.00;;;0.00;;
48871;SDS011;36154;51.674;7.824;2023-08-07T01:51:47;0.05;;;0.05;;
48871;SDS011;36154;51.674;7.824;2023-08-07T01:54:12;0.10;;;0.10;;
48871;SDS011;36154;51.674;7.824;2023-08-07T01:56:38;0.00;;;0.00;;
48871;SDS011;36154;51.674;7.824;2023-08-07T01:59:03;0.10;;;0.10;;
48871;SDS011;36154;51.674;7.824;2023-08-07T02:01:28;0.00;;;0.00;;
48871;SDS011;36154;51.674;7.824;2023-08-07T02:03:54;0.10;;;0.10;;
48871;SDS011;36154;51.674;7.824;2023-08-07T02:06:19;0.10;;;0.10;;
48871;SDS011;36154;51.674;7.824;2023-08-07T02:08:46;0.00;;;0.00;;
48871;SDS011;36154;51.674;7.824;2023-08-07T02:11:12;0.00;;;0.00;;
48871;SDS011;36154;51.674;7.824;2023-08-07T02:13:38;0.10;;;0.10;;
48871;SDS011;36154;51.674;7.824;2023-08-07T02:16:03;0.10;;;0.10;;
48871;SDS011;36154;51.674;7.824;2023-08-07T02:18:28;0.10;;;0.10;;
48871;SDS011;36154;51.674;7.824;2023-08-07T02:20:54;0.10;;;0.10;;
48871;SDS011;36154;51.674;7.824;2023-08-07T02:23:19;0.90;;;0.10;;
48871;SDS011;36154;51.674;7.824;2023-08-07T02:25:44;0.10;;;0.10;;
48871;SDS011;36154;51.674;7.824;2023-08-07T02:28:10;0.10;;;0.10;;
48871;SDS011;36154;51.674;7.824;2023-08-07T02:30:36;0.10;;;0.10;;
48871;SDS011;36154;51.674;7.824;2023-08-07T02:33:01;0.10;;;0.10;;
48871;SDS011;36154;51.674;7.824;2023-08-07T02:35:26;0.10;;;0.10;;
48871;SDS011;36154;51.674;7.824;2023-08-07T02:37:52;0.10;;;0.10;;
48871;SDS011;36154;51.674;7.824;2023-08-07T02:40:17;0.10;;;0.10;;
48871;SDS011;36154;51.674;7.824;2023-08-07T02:42:44;0.00;;;0.00;;
48871;SDS011;36154;51.674;7.824;2023-08-07T02:45:09;0.10;;;0.10;;
48871;SDS011;36154;51.674;7.824;2023-08-07T02:47:34;0.00;;;0.00;;
48871;SDS011;36154;51.674;7.824;2023-08-07T02:50:00;0.00;;;0.00;;
48871;SDS011;36154;51.674;7.824;2023-08-07T02:52:25;0.00;;;0.00;;
48871;SDS011;36154;51.674;7.824;2023-08-07T02:54:50;0.10;;;0.10;;
48871;SDS011;36154;51.674;7.824;2023-08-07T02:57:16;0.10;;;0.10;;
48871;SDS011;36154;51.674;7.824;2023-08-07T02:59:41;0.10;;;0.00;;
48871;SDS011;36154;51.674;7.824;2023-08-07T03:02:06;0.10;;;0.10;;
48871;SDS011;36154;51.674;7.824;2023-08-07T03:04:31;0.10;;;0.10;;
48871;SDS011;36154;51.674;7.824;2023-08-07T03:06:57;0.00;;;0.00;;
48871;SDS011;36154;51.674;7.824;2023-08-07T03:09:22;0.00;;;0.00;;
48871;SDS011;36154;51.674;7.824;2023-08-07T03:11:48;0.00;;;0.00;;
48871;SDS011;36154;51.674;7.824;2023-08-07T03:14:13;0.00;;;0.00;;
48871;SDS011;36154;51.674;7.824;2023-08-07T03:16:38;0.10;;;0.10;;
48871;SDS011;36154;51.674;7.824;2023-08-07T03:19:04;0.00;;;0.00;;
48871;SDS011;36154;51.674;7.824;2023-08-07T03:21:29;0.00;;;0.00;;
48871;SDS011;36154;51.674;7.824;2023-08-07T03:23:54;0.00;;;0.00;;
48871;SDS011;36154;51.674;7.824;2023-08-07T03:26:19;0.00;;;0.00;;
48871;SDS011;36154;51.674;7.824;2023-08-07T03:28:45;0.10;;;0.10;;
48871;SDS011;36154;51.674;7.824;2023-08-07T03:31:11;0.00;;;0.00;;
48871;SDS011;36154;51.674;7.824;2023-08-07T03:33:37;0.00;;;0.00;;
48871;SDS011;36154;51.674;7.824;2023-08-07T03:36:02;0.10;;;0.00;;
48871;SDS011;36154;51.674;7.824;2023-08-07T03:38:28;0.00;;;0.00;;
48871;SDS011;36154;51.674;7.824;2023-08-07T03:40:53;0.10;;;0.10;;
48871;SDS011;36154;51.674;7.824;2023-08-07T03:43:19;0.10;;;0.10;;
48871;SDS011;36154;51.674;7.824;2023-08-07T03:45:44;0.00;;;0.00;;
48871;SDS011;36154;51.674;7.824;2023-08-07T03:48:09;0.00;;;0.00;;
48871;SDS011;36154;51.674;7.824;2023-08-07T03:50:35;0.00;;;0.00;;
48871;SDS011;36154;51.674;7.824;2023-08-07T03:53:02;0.17;;;0.10;;
48871;SDS011;36154;51.674;7.824;2023-08-07T03:55:27;0.00;;;0.00;;
48871;SDS011;36154;51.674;7.824;2023-08-07T03:57:53;0.08;;;0.08;;
48871;SDS011;36154;51.674;7.824;2023-08-07T04:00:18;0.05;;;0.05;;
48871;SDS011;36154;51.674;7.824;2023-08-07T04:02:44;0.00;;;0.00;;
48871;SDS011;36154;51.674;7.824;2023-08-07T04:05:09;0.10;;;0.10;;
48871;SDS011;36154;51.674;7.824;2023-08-07T04:07:35;0.55;;;0.08;;
48871;SDS011;36154;51.674;7.824;2023-08-07T04:10:00;0.10;;;0.10;;
48871;SDS011;36154;51.674;7.824;2023-08-07T04:12:26;0.10;;;0.10;;
48871;SDS011;36154;51.674;7.824;2023-08-07T04:14:51;0.10;;;0.10;;
48871;SDS011;36154;51.674;7.824;2023-08-07T04:17:17;0.00;;;0.00;;
48871;SDS011;36154;51.674;7.824;2023-08-07T04:19:42;0.00;;;0.00;;
48871;SDS011;36154;51.674;7.824;2023-08-07T04:22:07;2.90;;;0.47;;
48871;SDS011;36154;51.674;7.824;2023-08-07T04:24:33;0.10;;;0.10;;
48871;SDS011;36154;51.674;7.824;2023-08-07T04:26:58;0.00;;;0.00;;
48871;SDS011;36154;51.674;7.824;2023-08-07T04:29:24;0.00;;;0.00;;
48871;SDS011;36154;51.674;7.824;2023-08-07T04:31:49;0.00;;;0.00;;
48871;SDS011;36154;51.674;7.824;2023-08-07T04:34:14;0.00;;;0.00;;
48871;SDS011;36154;51.674;7.824;2023-08-07T04:36:40;0.05;;;0.05;;
48871;SDS011;36154;51.674;7.824;2023-08-07T04:39:05;0.10;;;0.10;;
48871;SDS011;36154;51.674;7.824;2023-08-07T04:41:30;0.00;;;0.00;;
48871;SDS011;36154;51.674;7.824;2023-08-07T04:43:55;0.00;;;0.00;;
48871;SDS011;36154;51.674;7.824;2023-08-07T04:46:21;0.00;;;0.00;;
48871;SDS011;36154;51.674;7.824;2023-08-07T04:48:46;0.10;;;0.10;;
48871;SDS011;36154;51.674;7.824;2023-08-07T04:51:12;0.00;;;0.00;;
48871;SDS011;36154;51.674;7.824;2023-08-07T04:53:38;0.85;;;0.10;;
48871;SDS011;36154;51.674;7.824;2023-08-07T04:56:03;0.10;;;0.00;;
48871;SDS011;36154;51.674;7.824;2023-08-07T04:58:29;0.00;;;0.00;;
48871;SDS011;36154;51.674;7.824;2023-08-07T05:00:55;0.00;;;0.00;;
48871;SDS011;36154;51.674;7.824;2023-08-07T05:03:21;0.10;;;0.10;;
48871;SDS011;36154;51.674;7.824;2023-08-07T05:05:46;0.00;;;0.00;;
48871;SDS011;36154;51.674;7.824;2023-08-07T05:08:12;0.08;;;0.08;;
48871;SDS011;36154;51.674;7.824;2023-08-07T05:10:38;0.00;;;0.00;;
48871;SDS011;36154;51.674;7.824;2023-08-07T05:13:03;0.00;;;0.00;;
48871;SDS011;36154;51.674;7.824;2023-08-07T05:15:28;0.32;;;0.00;;
48871;SDS011;36154;51.674;7.824;2023-08-07T05:17:55;0.10;;;0.10;;
48871;SDS011;36154;51.674;7.824;2023-08-07T05:20:21;0.65;;;0.10;;
48871;SDS011;36154;51.674;7.824;2023-08-07T05:22:46;0.00;;;0.00;;
48871;SDS011;36154;51.674;7.824;2023-08-07T05:25:11;0.10;;;0.10;;
48871;SDS011;36154;51.674;7.824;2023-08-07T05:27:40;0.10;;;0.00;;
48871;SDS011;36154;51.674;7.824;2023-08-07T05:30:06;1.52;;;0.00;;
48871;SDS011;36154;51.674;7.824;2023-08-07T05:32:32;0.10;;;0.10;;
48871;SDS011;36154;51.674;7.824;2023-08-07T05:34:57;0.00;;;0.00;;
48871;SDS011;36154;51.674;7.824;2023-08-07T05:37:23;1.95;;;0.35;;
48871;SDS011;36154;51.674;7.824;2023-08-07T05:39:48;0.10;;;0.10;;
48871;SDS011;36154;51.674;7.824;2023-08-07T05:42:14;0.05;;;0.05;;
48871;SDS011;36154;51.674;7.824;2023-08-07T05:44:39;0.00;;;0.00;;
48871;SDS011;36154;51.674;7.824;2023-08-07T05:47:04;0.00;;;0.00;;
48871;SDS011;36154;51.674;7.824;2023-08-07T05:49:30;0.00;;;0.00;;
48871;SDS011;36154;51.674;7.824;2023-08-07T05:51:56;0.00;;;0.00;;
48871;SDS011;36154;51.674;7.824;2023-08-07T05:54:21;0.00;;;0.00;;
48871;SDS011;36154;51.674;7.824;2023-08-07T05:56:46;0.35;;;0.00;;
48871;SDS011;36154;51.674;7.824;2023-08-07T05:59:12;0.00;;;0.00;;
48871;SDS011;36154;51.674;7.824;2023-08-07T06:01:37;0.08;;;0.00;;
48871;SDS011;36154;51.674;7.824;2023-08-07T06:04:03;0.20;;;0.08;;
48871;SDS011;36154;51.674;7.824;2023-08-07T06:06:28;0.00;;;0.00;;
48871;SDS011;36154;51.674;7.824;2023-08-07T06:08:54;0.10;;;0.00;;
48871;SDS011;36154;51.674;7.824;2023-08-07T06:11:19;0.00;;;0.00;;
48871;SDS011;36154;51.674;7.824;2023-08-07T06:13:45;0.10;;;0.10;;
48871;SDS011;36154;51.674;7.824;2023-08-07T06:16:10;0.10;;;0.05;;
48871;SDS011;36154;51.674;7.824;2023-08-07T06:18:36;0.10;;;0.10;;
48871;SDS011;36154;51.674;7.824;2023-08-07T06:21:02;0.08;;;0.08;;
48871;SDS011;36154;51.674;7.824;2023-08-07T06:23:28;0.20;;;0.10;;
48871;SDS011;36154;51.674;7.824;2023-08-07T06:25:54;0.85;;;0.00;;
48871;SDS011;36154;51.674;7.824;2023-08-07T06:28:19;0.10;;;0.10;;
48871;SDS011;36154;51.674;7.824;2023-08-07T06:30:47;0.00;;;0.00;;
48871;SDS011;36154;51.674;7.824;2023-08-07T06:33:12;0.08;;;0.00;;
48871;SDS011;36154;51.674;7.824;2023-08-07T06:35:40;0.00;;;0.00;;
48871;SDS011;36154;51.674;7.824;2023-08-07T06:38:07;0.00;;;0.00;;
48871;SDS011;36154;51.674;7.824;2023-08-07T06:40:34;0.05;;;0.05;;
48871;SDS011;36154;51.674;7.824;2023-08-07T06:43:00;0.03;;;0.00;;
48871;SDS011;36154;51.674;7.824;2023-08-07T06:45:25;0.38;;;0.10;;
48871;SDS011;36154;51.674;7.824;2023-08-07T06:47:51;0.13;;;0.05;;
48871;SDS011;36154;51.674;7.824;2023-08-07T06:50:16;0.00;;;0.00;;
48871;SDS011;36154;51.674;7.824;2023-08-07T06:52:41;0.00;;;0.00;;
48871;SDS011;36154;51.674;7.824;2023-08-07T06:55:07;0.00;;;0.00;;
48871;SDS011;36154;51.674;7.824;2023-08-07T06:57:32;0.00;;;0.00;;
48871;SDS011;36154;51.674;7.824;2023-08-07T06:59:57;0.10;;;0.10;;
48871;SDS011;36154;51.674;7.824;2023-08-07T07:02:23;1.88;;;0.10;;
48871;SDS011;36154;51.674;7.824;2023-08-07T07:04:48;0.05;;;0.05;;
48871;SDS011;36154;51.674;7.824;2023-08-07T07:07:14;1.05;;;0.00;;
48871;SDS011;36154;51.674;7.824;2023-08-07T07:09:41;0.10;;;0.10;;
48871;SDS011;36154;51.674;7.824;2023-08-07T07:12:07;0.10;;;0.10;;
48871;SDS011;36154;51.674;7.824;2023-08-07T07:14:32;0.38;;;0.10;;
48871;SDS011;36154;51.674;7.824;2023-08-07T07:17:01;0.10;;;0.10;;
48871;SDS011;36154;51.674;7.824;2023-08-07T07:19:26;0.13;;;0.00;;
48871;SDS011;36154;51.674;7.824;2023-08-07T07:21:52;0.03;;;0.00;;
48871;SDS011;36154;51.674;7.824;2023-08-07T07:24:18;0.30;;;0.10;;
48871;SDS011;36154;51.674;7.824;2023-08-07T07:26:43;0.00;;;0.00;;
48871;SDS011;36154;51.674;7.824;2023-08-07T07:29:08;0.00;;;0.00;;
48871;SDS011;36154;51.674;7.824;2023-08-07T07:31:34;0.05;;;0.00;;
48871;SDS011;36154;51.674;7.824;2023-08-07T07:33:59;0.10;;;0.00;;
48871;SDS011;36154;51.674;7.824;2023-08-07T07:36:24;0.00;;;0.00;;
48871;SDS011;36154;51.674;7.824;2023-08-07T07:38:50;0.10;;;0.10;;
48871;SDS011;36154;51.674;7.824;2023-08-07T07:41:15;0.00;;;0.00;;
48871;SDS011;36154;51.674;7.824;2023-08-07T07:43:41;0.00;;;0.00;;
48871;SDS011;36154;51.674;7.824;2023-08-07T07:46:06;0.00;;;0.00;;
48871;SDS011;36154;51.674;7.824;2023-08-07T07:48:32;0.10;;;0.10;;
48871;SDS011;36154;51.674;7.824;2023-08-07T07:50:58;0.30;;;0.10;;
48871;SDS011;36154;51.674;7.824;2023-08-07T07:53:27;0.00;;;0.00;;
48871;SDS011;36154;51.674;7.824;2023-08-07T07:55:53;0.10;;;0.10;;
48871;SDS011;36154;51.674;7.824;2023-08-07T07:58:19;0.00;;;0.00;;
48871;SDS011;36154;51.674;7.824;2023-08-07T08:00:45;0.10;;;0.10;;
48871;SDS011;36154;51.674;7.824;2023-08-07T08:03:10;0.10;;;0.10;;
48871;SDS011;36154;51.674;7.824;2023-08-07T08:05:35;0.00;;;0.00;;
48871;SDS011;36154;51.674;7.824;2023-08-07T08:08:01;0.13;;;0.00;;
48871;SDS011;36154;51.674;7.824;2023-08-07T08:10:29;0.10;;;0.10;;
48871;SDS011;36154;51.674;7.824;2023-08-07T08:12:55;0.10;;;0.10;;
48871;SDS011;36154;51.674;7.824;2023-08-07T08:15:20;0.00;;;0.00;;
48871;SDS011;36154;51.674;7.824;2023-08-07T08:17:46;0.10;;;0.10;;
48871;SDS011;36154;51.674;7.824;2023-08-07T08:20:12;0.30;;;0.10;;
48871;SDS011;36154;51.674;7.824;2023-08-07T08:22:40;0.10;;;0.03;;
48871;SDS011;36154;51.674;7.824;2023-08-07T08:25:06;0.00;;;0.00;;
48871;SDS011;36154;51.674;7.824;2023-08-07T08:27:36;0.17;;;0.10;;
48871;SDS011;36154;51.674;7.824;2023-08-07T08:30:05;0.32;;;0.25;;
48871;SDS011;36154;51.674;7.824;2023-08-07T08:32:31;0.10;;;0.10;;
48871;SDS011;36154;51.674;7.824;2023-08-07T08:34:57;0.10;;;0.10;;
48871;SDS011;36154;51.674;7.824;2023-08-07T08:37:22;2.33;;;0.10;;
48871;SDS011;36154;51.674;7.824;2023-08-07T08:39:48;0.10;;;0.10;;
48871;SDS011;36154;51.674;7.824;2023-08-07T08:42:13;0.10;;;0.10;;
48871;SDS011;36154;51.674;7.824;2023-08-07T08:44:40;0.35;;;0.10;;
48871;SDS011;36154;51.674;7.824;2023-08-07T08:47:06;0.47;;;0.10;;
48871;SDS011;36154;51.674;7.824;2023-08-07T08:49:37;0.05;;;0.05;;
48871;SDS011;36154;51.674;7.824;2023-08-07T08:52:10;0.00;;;0.00;;
48871;SDS011;36154;51.674;7.824;2023-08-07T08:54:37;0.10;;;0.10;;
48871;SDS011;36154;51.674;7.824;2023-08-07T08:57:03;0.22;;;0.20;;
48871;SDS011;36154;51.674;7.824;2023-08-07T08:59:30;0.20;;;0.10;;
48871;SDS011;36154;51.674;7.824;2023-08-07T09:01:55;0.08;;;0.08;;
48871;SDS011;36154;51.674;7.824;2023-08-07T09:04:21;0.00;;;0.00;;
48871;SDS011;36154;51.674;7.824;2023-08-07T09:06:46;0.15;;;0.10;;
48871;SDS011;36154;51.674;7.824;2023-08-07T09:09:12;0.10;;;0.10;;
48871;SDS011;36154;51.674;7.824;2023-08-07T09:11:39;0.10;;;0.10;;
48871;SDS011;36154;51.674;7.824;2023-08-07T09:14:06;0.10;;;0.10;;
48871;SDS011;36154;51.674;7.824;2023-08-07T09:16:34;0.20;;;0.10;;
48871;SDS011;36154;51.674;7.824;2023-08-07T09:19:00;0.55;;;0.10;;
48871;SDS011;36154;51.674;7.824;2023-08-07T09:21:25;0.10;;;0.10;;
48871;SDS011;36154;51.674;7.824;2023-08-07T09:23:51;0.20;;;0.13;;
48871;SDS011;36154;51.674;7.824;2023-08-07T09:26:21;0.15;;;0.10;;
48871;SDS011;36154;51.674;7.824;2023-08-07T09:28:48;0.10;;;0.10;;
48871;SDS011;36154;51.674;7.824;2023-08-07T09:31:16;0.10;;;0.10;;
48871;SDS011;36154;51.674;7.824;2023-08-07T09:33:42;0.05;;;0.05;;
48871;SDS011;36154;51.674;7.824;2023-08-07T09:36:07;0.20;;;0.10;;
48871;SDS011;36154;51.674;7.824;2023-08-07T09:38:32;0.25;;;0.10;;
48871;SDS011;36154;51.674;7.824;2023-08-07T09:40:58;0.10;;;0.10;;
48871;SDS011;36154;51.674;7.824;2023-08-07T09:43:24;0.10;;;0.10;;
48871;SDS011;36154;51.674;7.824;2023-08-07T09:45:50;0.10;;;0.10;;
48871;SDS011;36154;51.674;7.824;2023-08-07T09:48:22;0.20;;;0.17;;
48871;SDS011;36154;51.674;7.824;2023-08-07T09:50:50;0.00;;;0.00;;
48871;SDS011;36154;51.674;7.824;2023-08-07T09:53:15;0.80;;;0.10;;
48871;SDS011;36154;51.674;7.824;2023-08-07T09:55:41;0.35;;;0.10;;
48871;SDS011;36154;51.674;7.824;2023-08-07T09:58:08;0.20;;;0.20;;
48871;SDS011;36154;51.674;7.824;2023-08-07T10:00:34;0.13;;;0.10;;
48871;SDS011;36154;51.674;7.824;2023-08-07T10:03:00;0.00;;;0.00;;
48871;SDS011;36154;51.674;7.824;2023-08-07T10:05:26;0.43;;;0.10;;
48871;SDS011;36154;51.674;7.824;2023-08-07T10:07:52;1.73;;;0.25;;
48871;SDS011;36154;51.674;7.824;2023-08-07T10:10:20;0.88;;;0.13;;
48871;SDS011;36154;51.674;7.824;2023-08-07T10:12:45;0.15;;;0.10;;
48871;SDS011;36154;51.674;7.824;2023-08-07T10:15:13;1.55;;;1.35;;
48871;SDS011;36154;51.674;7.824;2023-08-07T10:17:39;3.95;;;1.80;;
48871;SDS011;36154;51.674;7.824;2023-08-07T10:20:04;4.88;;;3.42;;
48871;SDS011;36154;51.674;7.824;2023-08-07T10:22:31;5.35;;;3.58;;
48871;SDS011;36154;51.674;7.824;2023-08-07T10:24:58;7.38;;;4.97;;
48871;SDS011;36154;51.674;7.824;2023-08-07T10:27:26;5.18;;;3.90;;
48871;SDS011;36154;51.674;7.824;2023-08-07T10:29:53;6.97;;;4.07;;
48871;SDS011;36154;51.674;7.824;2023-08-07T10:32:23;7.03;;;3.90;;
48871;SDS011;36154;51.674;7.824;2023-08-07T10:34:50;5.20;;;3.55;;
48871;SDS011;36154;51.674;7.824;2023-08-07T10:40:08;3.63;;;2.75;;
48871;SDS011;36154;51.674;7.824;2023-08-07T10:45:23;3.60;;;2.42;;
48871;SDS011;36154;51.674;7.824;2023-08-07T10:47:56;2.25;;;1.90;;
48871;SDS011;36154;51.674;7.824;2023-08-07T10:50:33;2.40;;;2.00;;
48871;SDS011;36154;51.674;7.824;2023-08-07T10:53:01;2.03;;;1.80;;
48871;SDS011;36154;51.674;7.824;2023-08-07T10:55:30;3.03;;;2.28;;
48871;SDS011;36154;51.674;7.824;2023-08-07T10:57:56;1.67;;;1.52;;
48871;SDS011;36154;51.674;7.824;2023-08-07T11:00:25;2.38;;;1.65;;
48871;SDS011;36154;51.674;7.824;2023-08-07T11:02:52;3.13;;;1.83;;
48871;SDS011;36154;51.674;7.824;2023-08-07T11:05:17;1.60;;;1.50;;
48871;SDS011;36154;51.674;7.824;2023-08-07T11:07:43;4.25;;;1.60;;
48871;SDS011;36154;51.674;7.824;2023-08-07T11:10:09;8.15;;;2.25;;
48871;SDS011;36154;51.674;7.824;2023-08-07T11:12:40;4.40;;;1.77;;
48871;SDS011;36154;51.674;7.824;2023-08-07T11:15:06;3.40;;;1.83;;
48871;SDS011;36154;51.674;7.824;2023-08-07T11:17:32;6.35;;;2.22;;
48871;SDS011;36154;51.674;7.824;2023-08-07T11:19:57;8.50;;;1.92;;
48871;SDS011;36154;51.674;7.824;2023-08-07T11:22:25;5.68;;;2.20;;
48871;SDS011;36154;51.674;7.824;2023-08-07T11:24:50;4.63;;;1.98;;
48871;SDS011;36154;51.674;7.824;2023-08-07T11:27:16;5.30;;;1.95;;
48871;SDS011;36154;51.674;7.824;2023-08-07T11:29:44;8.23;;;1.77;;
48871;SDS011;36154;51.674;7.824;2023-08-07T11:32:12;7.55;;;2.17;;
48871;SDS011;36154;51.674;7.824;2023-08-07T11:34:39;4.55;;;1.70;;
48871;SDS011;36154;51.674;7.824;2023-08-07T11:37:04;3.00;;;1.50;;
48871;SDS011;36154;51.674;7.824;2023-08-07T11:39:30;6.60;;;1.77;;
48871;SDS011;36154;51.674;7.824;2023-08-07T11:41:55;3.83;;;1.48;;
48871;SDS011;36154;51.674;7.824;2023-08-07T11:44:20;3.35;;;1.15;;
48871;SDS011;36154;51.674;7.824;2023-08-07T11:46:47;3.42;;;1.55;;
48871;SDS011;36154;51.674;7.824;2023-08-07T11:49:12;4.30;;;1.45;;
48871;SDS011;36154;51.674;7.824;2023-08-07T11:51:38;2.85;;;1.38;;
48871;SDS011;36154;51.674;7.824;2023-08-07T11:54:03;1.75;;;1.10;;
48871;SDS011;36154;51.674;7.824;2023-08-07T11:56:29;3.45;;;1.48;;
48871;SDS011;36154;51.674;7.824;2023-08-07T11:58:56;4.30;;;1.45;;
48871;SDS011;36154;51.674;7.824;2023-08-07T12:01:23;4.03;;;1.27;;
48871;SDS011;36154;51.674;7.824;2023-08-07T12:03:51;2.72;;;1.05;;
48871;SDS011;36154;51.674;7.824;2023-08-07T12:06:53;2.65;;;1.20;;
48871;SDS011;36154;51.674;7.824;2023-08-07T12:09:19;1.52;;;1.00;;
48871;SDS011;36154;51.674;7.824;2023-08-07T12:11:45;2.95;;;1.45;;
48871;SDS011;36154;51.674;7.824;2023-08-07T12:14:13;1.25;;;1.10;;
48871;SDS011;36154;51.674;7.824;2023-08-07T12:16:43;1.77;;;0.98;;
48871;SDS011;36154;51.674;7.824;2023-08-07T12:19:10;3.22;;;1.00;;
48871;SDS011;36154;51.674;7.824;2023-08-07T12:21:35;5.20;;;1.10;;
48871;SDS011;36154;51.674;7.824;2023-08-07T12:24:01;1.58;;;0.98;;
48871;SDS011;36154;51.674;7.824;2023-08-07T12:26:26;1.10;;;0.85;;
48871;SDS011;36154;51.674;7.824;2023-08-07T12:28:52;4.80;;;1.05;;
48871;SDS011;36154;51.674;7.824;2023-08-07T12:31:18;1.45;;;0.73;;
48871;SDS011;36154;51.674;7.824;2023-08-07T12:33:43;1.98;;;0.80;;
48871;SDS011;36154;51.674;7.824;2023-08-07T12:36:09;1.73;;;0.60;;
48871;SDS011;36154;51.674;7.824;2023-08-07T12:38:35;3.20;;;1.00;;
48871;SDS011;36154;51.674;7.824;2023-08-07T12:41:00;1.88;;;0.90;;
48871;SDS011;36154;51.674;7.824;2023-08-07T12:43:28;1.80;;;0.70;;
48871;SDS011;36154;51.674;7.824;2023-08-07T12:45:53;1.42;;;0.73;;
48871;SDS011;36154;51.674;7.824;2023-08-07T12:48:19;1.52;;;0.90;;
48871;SDS011;36154;51.674;7.824;2023-08-07T12:50:44;1.00;;;0.60;;
48871;SDS011;36154;51.674;7.824;2023-08-07T12:53:10;2.17;;;1.15;;
48871;SDS011;36154;51.674;7.824;2023-08-07T12:55:35;1.55;;;0.90;;
48871;SDS011;36154;51.674;7.824;2023-08-07T12:58:00;2.00;;;0.80;;
48871;SDS011;36154;51.674;7.824;2023-08-07T13:00:25;1.65;;;0.73;;
48871;SDS011;36154;51.674;7.824;2023-08-07T13:02:51;2.00;;;0.80;;
48871;SDS011;36154;51.674;7.824;2023-08-07T13:05:18;1.50;;;0.85;;
48871;SDS011;36154;51.674;7.824;2023-08-07T13:07:45;3.92;;;1.20;;
48871;SDS011;36154;51.674;7.824;2023-08-07T13:10:16;2.88;;;1.20;;
48871;SDS011;36154;51.674;7.824;2023-08-07T13:12:42;1.20;;;1.10;;
48871;SDS011;36154;51.674;7.824;2023-08-07T13:15:09;2.17;;;1.15;;
48871;SDS011;36154;51.674;7.824;2023-08-07T13:17:40;7.70;;;1.95;;
48871;SDS011;36154;51.674;7.824;2023-08-07T13:20:07;6.05;;;1.75;;
48871;SDS011;36154;51.674;7.824;2023-08-07T13:22:37;4.63;;;1.70;;
48871;SDS011;36154;51.674;7.824;2023-08-07T13:25:03;3.75;;;1.40;;
48871;SDS011;36154;51.674;7.824;2023-08-07T13:27:33;2.67;;;1.10;;
48871;SDS011;36154;51.674;7.824;2023-08-07T13:29:59;3.20;;;1.10;;
48871;SDS011;36154;51.674;7.824;2023-08-07T13:32:25;4.13;;;1.20;;
48871;SDS011;36154;51.674;7.824;2023-08-07T13:34:50;2.05;;;1.00;;
48871;SDS011;36154;51.674;7.824;2023-08-07T13:37:18;3.90;;;1.20;;
48871;SDS011;36154;51.674;7.824;2023-08-07T13:39:44;2.50;;;0.93;;
48871;SDS011;36154;51.674;7.824;2023-08-07T13:42:10;3.00;;;1.30;;
48871;SDS011;36154;51.674;7.824;2023-08-07T13:44:35;6.60;;;1.67;;
48871;SDS011;36154;51.674;7.824;2023-08-07T13:47:04;3.50;;;1.40;;
48871;SDS011;36154;51.674;7.824;2023-08-07T13:49:30;3.15;;;1.35;;
48871;SDS011;36154;51.674;7.824;2023-08-07T13:51:55;5.63;;;1.60;;
48871;SDS011;36154;51.674;7.824;2023-08-07T13:54:21;3.35;;;1.50;;
48871;SDS011;36154;51.674;7.824;2023-08-07T13:56:46;4.35;;;1.70;;
48871;SDS011;36154;51.674;7.824;2023-08-07T13:59:12;4.43;;;1.90;;
48871;SDS011;36154;51.674;7.824;2023-08-07T14:01:37;1.77;;;0.90;;
48871;SDS011;36154;51.674;7.824;2023-08-07T14:04:02;1.92;;;1.25;;
48871;SDS011;36154;51.674;7.824;2023-08-07T14:06:28;2.20;;;0.95;;
48871;SDS011;36154;51.674;7.824;2023-08-07T14:08:53;2.17;;;1.10;;
48871;SDS011;36154;51.674;7.824;2023-08-07T14:11:19;0.98;;;0.80;;
48871;SDS011;36154;51.674;7.824;2023-08-07T14:13:45;1.02;;;0.55;;
48871;SDS011;36154;51.674;7.824;2023-08-07T14:16:11;1.33;;;0.65;;
48871;SDS011;36154;51.674;7.824;2023-08-07T14:18:36;1.50;;;0.70;;
48871;SDS011;36154;51.674;7.824;2023-08-07T14:21:02;0.90;;;0.65;;
48871;SDS011;36154;51.674;7.824;2023-08-07T14:23:27;2.45;;;1.00;;
48871;SDS011;36154;51.674;7.824;2023-08-07T14:25:53;1.75;;;0.95;;
48871;SDS011;36154;51.674;7.824;2023-08-07T14:28:18;1.98;;;1.33;;
48871;SDS011;36154;51.674;7.824;2023-08-07T14:30:44;4.78;;;1.42;;
48871;SDS011;36154;51.674;7.824;2023-08-07T14:33:10;4.10;;;1.70;;
48871;SDS011;36154;51.674;7.824;2023-08-07T14:35:35;4.90;;;1.48;;
48871;SDS011;36154;51.674;7.824;2023-08-07T14:38:00;7.32;;;1.35;;
48871;SDS011;36154;51.674;7.824;2023-08-07T14:40:26;1.60;;;1.25;;
48871;SDS011;36154;51.674;7.824;2023-08-07T14:42:52;4.90;;;1.60;;
48871;SDS011;36154;51.674;7.824;2023-08-07T14:45:18;4.40;;;1.30;;
48871;SDS011;36154;51.674;7.824;2023-08-07T14:47:43;3.40;;;1.50;;
48871;SDS011;36154;51.674;7.824;2023-08-07T14:50:09;3.35;;;1.15;;
48871;SDS011;36154;51.674;7.824;2023-08-07T14:52:35;2.03;;;1.08;;
48871;SDS011;36154;51.674;7.824;2023-08-07T14:55:01;5.63;;;1.52;;